Time;durP1;ratioP1;P1;durP2;ratioP2;P2;SDS_P1;SDS_P2;PMS_P1;PMS_P2;Temp;Humidity;BMP_temperature;BMP_pressure;BME280_temperature;BME280_humidity;BME280_pressure;Samples;Min_cycle;Max_cycle;Signal;HPM_P1;HPM_P2
2021/03/23 00:00:43;;;;;;;;;;;;;;;13.54;39.77;101547.69;4823825;29;20058;-81
2021/03/23 00:03:38;;;;;;;;;;;;;;;13.52;40.11;101555.69;4849078;29;19937;-82
2021/03/23 00:06:10;;;;;;;;;;;;;;;13.50;39.96;101556.66;4830068;29;20368;-81
2021/03/23 00:08:42;;;;;;;;;;;;;;;13.48;40.13;101558.50;4831950;29;19936;-82
2021/03/23 00:11:18;;;;;;;;;;;;;;;13.45;40.01;101557.66;4828995;29;19933;-82
2021/03/23 00:13:46;;;;;;;;;;;;;;;13.44;40.02;101561.22;4824444;29;19932;-82
2021/03/23 00:16:17;;;;;;;;;;;;;;;13.42;40.20;101557.75;4833547;29;20378;-81
2021/03/23 00:18:51;;;;;;;;;;;;;;;13.41;40.25;101563.09;4838401;29;19932;-83
2021/03/23 00:21:25;;;;;;;;;;;;;;;13.38;40.25;101557.84;4827742;29;19932;-81
2021/03/23 00:23:58;;;;;;;;;;;;;;;13.37;40.26;101559.66;4823094;29;19933;-81
2021/03/23 00:26:29;;;;;;;;;;;;;;;13.31;40.44;101561.56;4826365;29;20009;-80
2021/03/23 00:28:57;;;;;;;;;;;;;;;13.33;40.37;101557.06;4823851;29;19992;-81
2021/03/23 00:31:29;;;;;;;;;;;;;;;13.31;40.41;101565.06;4837335;29;20387;-80
2021/03/23 00:34:00;;;;;;;;;;;;;;;13.28;40.31;101554.53;4828882;29;19929;-80
2021/03/23 00:36:34;;;;;;;;;;;;;;;13.27;40.28;101566.94;4818044;29;19988;-78
2021/03/23 00:39:05;;;;;;;;;;;;;;;13.24;40.57;101559.03;4830553;29;19985;-80
2021/03/23 00:41:37;;;;;;;;;;;;;;;13.23;40.50;101567.94;4824113;29;19984;-79
2021/03/23 00:44:06;;;;;;;;;;;;;;;13.22;40.49;101567.97;4819145;29;19932;-79
2021/03/23 00:46:35;;;;;;;;;;;;;;;13.20;40.53;101568.00;4826047;29;19936;-77
2021/03/23 00:49:08;;;;;;;;;;;;;;;13.18;40.71;101559.19;4825014;29;19929;-79
2021/03/23 00:51:37;;;;;;;;;;;;;;;13.17;40.66;101567.22;4826136;29;19939;-79
2021/03/23 00:54:07;;;;;;;;;;;;;;;13.15;40.62;101572.56;4824608;29;19997;-80
2021/03/23 00:56:37;;;;;;;;;;;;;;;13.12;40.66;101568.19;4818596;29;20404;-80
2021/03/23 00:59:05;;;;;;;;;;;;;;;13.11;40.62;101565.59;4839302;29;19952;-80
2021/03/23 01:01:40;;;;;;;;;;;;;;;13.07;40.62;101567.44;4826816;29;19937;-80
2021/03/23 01:04:24;;;;;;;;;;;;;;;13.08;40.82;101568.31;4823930;29;19929;-80
2021/03/23 01:06:53;;;;;;;;;;;;;;;13.05;40.89;101571.94;4831141;29;19995;-78
2021/03/23 01:09:27;;;;;;;;;;;;;;;13.03;40.98;101576.41;4820470;29;20008;-79
2021/03/23 01:11:59;;;;;;;;;;;;;;;13.02;40.92;101576.44;4825715;29;19929;-80
2021/03/23 01:14:29;;;;;;;;;;;;;;;12.99;41.08;101581.81;4822436;29;19993;-79
2021/03/23 01:16:59;;;;;;;;;;;;;;;12.96;41.03;101577.44;4821559;29;20017;-79
2021/03/23 01:19:30;;;;;;;;;;;;;;;12.93;40.92;101578.38;4828820;29;20017;-80
2021/03/23 01:22:00;;;;;;;;;;;;;;;12.91;41.02;101582.88;4827061;29;19944;-80
2021/03/23 01:24:37;;;;;;;;;;;;;;;12.90;41.22;101585.59;4824986;29;19932;-79
2021/03/23 01:27:06;;;;;;;;;;;;;;;12.88;41.08;101587.38;4807957;29;19994;-78
2021/03/23 01:29:33;;;;;;;;;;;;;;;12.87;41.39;101586.53;4828511;29;20470;-79
2021/03/23 01:32:01;;;;;;;;;;;;;;;12.85;41.29;101588.31;4835422;29;19937;-82
2021/03/23 01:34:45;;;;;;;;;;;;;;;12.83;41.31;101589.28;4812267;29;19932;-80
2021/03/23 01:37:13;;;;;;;;;;;;;;;12.82;41.15;101582.22;4817798;29;19958;-79
2021/03/23 01:39:45;;;;;;;;;;;;;;;12.77;41.38;101580.53;4824238;29;19936;-81
2021/03/23 01:42:15;;;;;;;;;;;;;;;12.76;41.28;101584.13;4825758;29;19933;-80
2021/03/23 01:44:44;;;;;;;;;;;;;;;12.75;41.32;101595.66;4829542;29;19932;-79
2021/03/23 01:47:14;;;;;;;;;;;;;;;12.73;41.35;101589.50;4827665;29;19940;-79
2021/03/23 01:49:44;;;;;;;;;;;;;;;12.73;41.39;101586.84;4824149;29;20143;-80
2021/03/23 01:52:13;;;;;;;;;;;;;;;12.69;41.55;101592.25;4827215;29;19955;-80
2021/03/23 01:54:47;;;;;;;;;;;;;;;12.67;41.34;101589.63;4805826;29;20004;-82
2021/03/23 01:57:16;;;;;;;;;;;;;;;12.67;41.41;101588.75;4811283;29;19936;-78
2021/03/23 01:59:47;;;;;;;;;;;;;;;12.65;41.62;101594.09;4825386;29;19985;-80
2021/03/23 02:02:20;;;;;;;;;;;;;;;12.62;41.62;101591.53;4827835;29;20035;-82
2021/03/23 02:05:12;;;;;;;;;;;;;;;12.60;41.67;101601.28;4810161;29;19940;-82
2021/03/23 02:07:41;;;;;;;;;;;;;;;12.58;41.71;101592.47;4804785;29;19936;-80
2021/03/23 02:10:15;;;;;;;;;;;;;;;12.57;41.65;101601.38;4823607;29;19964;-81
2021/03/23 02:12:46;;;;;;;;;;;;;;;12.53;41.66;101595.25;4833500;29;20296;-82
2021/03/23 02:15:16;;;;;;;;;;;;;;;12.54;41.61;101598.78;4830432;29;19932;-81
2021/03/23 02:17:44;;;;;;;;;;;;;;;12.52;41.74;101597.94;4821308;29;19933;-82
2021/03/23 02:20:18;;;;;;;;;;;;;;;12.49;41.67;101582.06;4827281;29;19929;-81
2021/03/23 02:22:48;;;;;;;;;;;;;;;12.47;41.81;101587.41;4825288;29;19932;-80
2021/03/23 02:25:18;;;;;;;;;;;;;;;12.43;41.82;101577.78;4826510;29;19933;-78
2021/03/23 02:27:47;;;;;;;;;;;;;;;12.44;41.85;101598.13;4827170;29;19997;-82
2021/03/23 02:30:19;;;;;;;;;;;;;;;12.42;41.82;101591.94;4822847;29;20386;-81
2021/03/23 02:32:51;;;;;;;;;;;;;;;12.40;41.89;101599.09;4822338;29;19933;-83
2021/03/23 02:35:30;;;;;;;;;;;;;;;12.38;41.96;101590.28;4819654;29;19932;-81
2021/03/23 02:37:59;;;;;;;;;;;;;;;12.36;41.95;101595.63;4809260;29;19981;-81
2021/03/23 02:40:33;;;;;;;;;;;;;;;12.35;42.04;101595.66;4838977;29;19936;-80
2021/03/23 02:43:04;;;;;;;;;;;;;;;12.34;41.99;101600.06;4824427;29;19978;-81
2021/03/23 02:45:35;;;;;;;;;;;;;;;12.33;41.97;101605.41;4836031;29;19936;-81
2021/03/23 02:48:03;;;;;;;;;;;;;;;12.29;42.13;101602.84;4822488;29;19993;-79
2021/03/23 02:50:32;;;;;;;;;;;;;;;12.29;42.10;101607.25;4825494;29;19937;-78
2021/03/23 02:53:04;;;;;;;;;;;;;;;12.25;42.27;101606.47;4831996;29;19949;-79
2021/03/23 02:55:34;;;;;;;;;;;;;;;12.24;42.06;101601.16;4826403;29;20207;-81
2021/03/23 02:58:04;;;;;;;;;;;;;;;12.20;42.26;101608.34;4815467;29;20344;-81
2021/03/23 03:00:34;;;;;;;;;;;;;;;12.19;42.26;101603.06;4811417;29;19975;-79
2021/03/23 03:03:03;;;;;;;;;;;;;;;12.18;42.28;101606.63;4845649;29;19975;-81
2021/03/23 03:05:54;;;;;;;;;;;;;;;12.14;42.30;101600.50;4832373;29;19958;-81
2021/03/23 03:08:23;;;;;;;;;;;;;;;12.15;42.18;101596.06;4827043;29;19943;-83
2021/03/23 03:10:55;;;;;;;;;;;;;;;12.12;42.48;101604.94;4832501;29;20039;-79
2021/03/23 03:13:26;;;;;;;;;;;;;;;12.10;42.42;101604.97;4824689;29;19940;-82
2021/03/23 03:15:59;;;;;;;;;;;;;;;12.04;42.20;101598.94;4818190;29;19936;-81
2021/03/23 03:18:29;;;;;;;;;;;;;;;12.07;42.71;101602.41;4807034;29;19929;-81
2021/03/23 03:20:57;;;;;;;;;;;;;;;12.05;42.53;101603.34;4823194;29;19929;-79
2021/03/23 03:23:26;;;;;;;;;;;;;;;12.04;42.54;101602.47;4819951;29;19928;-80
2021/03/23 03:25:59;;;;;;;;;;;;;;;12.02;42.60;101603.41;4832036;29;20299;-82
2021/03/23 03:28:28;;;;;;;;;;;;;;;12.01;42.60;101596.34;4817313;29;20012;-79
2021/03/23 03:31:01;;;;;;;;;;;;;;;11.99;42.47;101599.03;4832223;29;19944;-80
2021/03/23 03:33:29;;;;;;;;;;;;;;;11.99;42.51;101598.16;4822851;29;20437;-81
2021/03/23 03:36:06;;;;;;;;;;;;;;;11.96;42.60;101604.38;4811429;29;20494;-81
2021/03/23 03:38:36;;;;;;;;;;;;;;;11.94;42.49;101601.72;4813911;29;19980;-80
2021/03/23 03:41:03;;;;;;;;;;;;;;;11.93;42.39;101599.97;4831441;29;20034;-81
2021/03/23 03:43:33;;;;;;;;;;;;;;;11.91;42.63;101604.44;4825291;29;21074;-82
2021/03/23 03:46:03;;;;;;;;;;;;;;;11.88;42.66;101596.53;4825896;29;19935;-82
2021/03/23 03:48:32;;;;;;;;;;;;;;;11.88;42.57;101599.19;4826938;29;20393;-81
2021/03/23 03:51:03;;;;;;;;;;;;;;;11.87;42.55;101607.19;4812213;29;19933;-80
2021/03/23 03:53:31;;;;;;;;;;;;;;;11.85;42.79;101620.47;4829224;29;20004;-82
2021/03/23 03:55:59;;;;;;;;;;;;;;;11.85;42.57;101614.31;4814413;29;19954;-82
2021/03/23 03:58:30;;;;;;;;;;;;;;;11.83;42.80;101624.91;4824363;29;19936;-81
2021/03/23 04:00:59;;;;;;;;;;;;;;;11.82;42.81;101632.91;4824152;29;19929;-80
2021/03/23 04:03:28;;;;;;;;;;;;;;;11.80;42.70;101630.28;4817568;29;20512;-82
2021/03/23 04:05:57;;;;;;;;;;;;;;;11.78;42.93;101619.72;4830128;29;19940;-81
2021/03/23 04:08:30;;;;;;;;;;;;;;;11.77;42.70;101619.75;4829305;29;20157;-81
2021/03/23 04:10:58;;;;;;;;;;;;;;;11.77;42.81;101619.75;4814756;29;19928;-80
2021/03/23 04:13:31;;;;;;;;;;;;;;;11.75;43.11;101616.22;4810498;29;19996;-82
2021/03/23 04:16:01;;;;;;;;;;;;;;;11.73;43.01;101621.56;4827549;29;20658;-82
2021/03/23 04:18:29;;;;;;;;;;;;;;;11.73;43.02;101620.72;4840937;29;19983;-81
2021/03/23 04:20:58;;;;;;;;;;;;;;;11.70;42.95;101619.00;4838367;29;19933;-81
2021/03/23 04:23:28;;;;;;;;;;;;;;;11.68;42.96;101626.06;4832581;29;19932;-80
2021/03/23 04:25:57;;;;;;;;;;;;;;;11.68;42.99;101619.91;4826144;29;19979;-80
2021/03/23 04:28:30;;;;;;;;;;;;;;;11.67;43.07;101619.03;4822085;29;19944;-81
2021/03/23 04:30:59;;;;;;;;;;;;;;;11.67;43.02;101620.81;4833864;29;19936;-79
2021/03/23 04:33:28;;;;;;;;;;;;;;;11.64;42.83;101613.78;4828844;29;19997;-80
2021/03/23 04:35:57;;;;;;;;;;;;;;;11.63;42.96;101609.38;4836050;29;19947;-80
2021/03/23 04:38:31;;;;;;;;;;;;;;;11.61;43.40;101606.75;4826750;29;19929;-80
2021/03/23 04:41:05;;;;;;;;;;;;;;;11.58;43.23;101595.34;4841187;29;19932;-81
2021/03/23 04:43:43;;;;;;;;;;;;;;;11.57;43.35;101598.88;4824650;29;20374;-80
2021/03/23 04:46:12;;;;;;;;;;;;;;;11.56;43.42;101602.47;4829091;29;20519;-81
2021/03/23 04:48:42;;;;;;;;;;;;;;;11.54;43.59;101605.13;4822610;29;19933;-80
2021/03/23 04:51:11;;;;;;;;;;;;;;;11.52;43.59;101601.63;4826302;29;19939;-81
2021/03/23 04:53:39;;;;;;;;;;;;;;;11.53;43.44;101603.38;4825774;29;19936;-81
2021/03/23 04:56:08;;;;;;;;;;;;;;;11.51;43.39;101610.47;4820387;29;19964;-82
2021/03/23 04:58:37;;;;;;;;;;;;;;;11.50;43.41;101600.78;4810127;29;19933;-81
2021/03/23 05:01:04;;;;;;;;;;;;;;;11.50;43.22;101607.84;4816415;29;19932;-82
2021/03/23 05:03:33;;;;;;;;;;;;;;;11.48;43.20;101615.84;4828273;29;20125;-82
2021/03/23 05:06:05;;;;;;;;;;;;;;;11.48;43.73;101613.19;4827579;29;19944;-81
2021/03/23 05:08:35;;;;;;;;;;;;;;;11.47;43.58;101627.34;4828789;29;19972;-82
2021/03/23 05:11:03;;;;;;;;;;;;;;;11.47;43.64;101627.34;4822731;29;20367;-81
2021/03/23 05:13:31;;;;;;;;;;;;;;;11.46;43.69;101628.22;4847122;29;19944;-81
2021/03/23 05:15:58;;;;;;;;;;;;;;;11.45;43.51;101640.63;4825933;29;19929;-81
2021/03/23 05:18:26;;;;;;;;;;;;;;;11.45;43.48;101640.63;4836964;29;19936;-80
2021/03/23 05:20:55;;;;;;;;;;;;;;;11.46;43.42;101642.38;4828566;29;19932;-81
2021/03/23 05:23:23;;;;;;;;;;;;;;;11.44;43.32;101638.00;4835477;29;20386;-80
2021/03/23 05:25:53;;;;;;;;;;;;;;;11.44;43.69;101648.59;4810790;29;19955;-82
2021/03/23 05:28:20;;;;;;;;;;;;;;;11.45;43.64;101645.91;4843997;29;19936;-78
2021/03/23 05:30:47;;;;;;;;;;;;;;;11.44;43.51;101646.81;4840160;29;19956;-76
2021/03/23 05:33:14;;;;;;;;;;;;;;;11.44;43.34;101648.59;4822057;29;19929;-76
2021/03/23 05:35:42;;;;;;;;;;;;;;;11.43;43.53;101650.34;4825441;29;19933;-75
2021/03/23 05:38:10;;;;;;;;;;;;;;;11.43;43.28;101663.59;4820035;29;20000;-77
2021/03/23 05:40:40;;;;;;;;;;;;;;;11.42;43.46;101656.53;4828457;29;20004;-77
2021/03/23 05:43:24;;;;;;;;;;;;;;;11.43;43.47;101655.66;4828355;29;20013;-77
2021/03/23 05:45:53;;;;;;;;;;;;;;;11.45;43.51;101661.81;4829271;29;19935;-76
2021/03/23 05:48:21;;;;;;;;;;;;;;;11.46;43.78;101660.03;4829810;29;19940;-76
2021/03/23 05:50:50;;;;;;;;;;;;;;;11.46;43.59;101660.03;4828293;29;19932;-77
2021/03/23 05:53:20;;;;;;;;;;;;;;;11.47;43.39;101664.44;4823807;29;20521;-77
2021/03/23 05:55:48;;;;;;;;;;;;;;;11.47;43.57;101669.72;4830523;29;19961;-78
2021/03/23 05:58:17;;;;;;;;;;;;;;;11.46;43.59;101666.22;4822640;29;19928;-77
2021/03/23 06:00:49;;;;;;;;;;;;;;;11.49;43.47;101667.94;4827054;29;19933;-78
2021/03/23 06:03:19;;;;;;;;;;;;;;;11.48;43.49;101665.28;4836883;29;19936;-79
2021/03/23 06:05:47;;;;;;;;;;;;;;;11.49;43.48;101664.41;4823661;29;19936;-76
2021/03/23 06:08:23;;;;;;;;;;;;;;;11.53;43.21;101674.03;4831394;29;19989;-79
2021/03/23 06:11:12;;;;;;;;;;;;;;;11.52;43.32;101674.97;4810128;29;19971;-77
2021/03/23 06:13:43;;;;;;;;;;;;;;;11.52;43.39;101674.97;4830529;29;19933;-79
2021/03/23 06:16:13;;;;;;;;;;;;;;;11.53;43.39;101680.22;4826921;29;19929;-76
2021/03/23 06:18:45;;;;;;;;;;;;;;;11.54;43.37;101684.59;4817991;29;19983;-76
2021/03/23 06:21:15;;;;;;;;;;;;;;;11.55;43.32;101682.84;4823846;29;19944;-75
2021/03/23 06:23:52;;;;;;;;;;;;;;;11.55;43.09;101681.06;4817581;29;19937;-76
2021/03/23 06:26:27;;;;;;;;;;;;;;;11.56;43.33;101685.47;4825663;29;19992;-80
2021/03/23 06:29:02;;;;;;;;;;;;;;;11.60;43.01;101688.94;4816367;29;20010;-77
2021/03/23 06:31:40;;;;;;;;;;;;;;;11.62;42.93;101695.97;4816959;29;19929;-76
2021/03/23 06:34:12;;;;;;;;;;;;;;;11.62;43.19;101685.38;4818469;29;19937;-75
2021/03/23 06:36:39;;;;;;;;;;;;;;;11.63;42.78;101686.25;4828169;29;20493;-76
2021/03/23 06:39:07;;;;;;;;;;;;;;;11.68;42.82;101683.53;4812739;29;19929;-74
2021/03/23 06:41:35;;;;;;;;;;;;;;;11.74;41.76;101689.59;4811667;29;19943;-76
2021/03/23 06:44:17;;;;;;;;;;;;;;;11.82;40.45;101688.56;4815472;29;19928;-77
2021/03/23 06:46:45;;;;;;;;;;;;;;;11.88;39.74;101699.06;4810318;29;19933;-78
2021/03/23 06:49:27;;;;;;;;;;;;;;;11.92;38.57;101699.00;4821245;29;19936;-77
2021/03/23 06:52:00;;;;;;;;;;;;;;;12.00;37.73;101698.00;4817987;29;21584;-75
2021/03/23 06:57:53;;;;;;;;;;;;;;;12.10;36.75;101704.91;4745051;30;19964;-77
2021/03/23 07:00:24;;;;;;;;;;;;;;;12.04;37.64;101713.84;4805147;29;19939;-78
2021/03/23 07:02:54;;;;;;;;;;;;;;;12.01;38.21;101715.69;4814027;29;19955;-79
2021/03/23 07:05:31;;;;;;;;;;;;;;;12.01;38.95;101718.34;4813960;29;19937;-77
2021/03/23 07:08:00;;;;;;;;;;;;;;;12.09;38.38;101709.31;4824247;29;20279;-79
2021/03/23 07:10:41;;;;;;;;;;;;;;;12.22;37.18;101711.75;4822476;29;19936;-80
2021/03/23 07:13:28;;;;;;;;;;;;;;;12.29;36.48;101711.63;4825426;29;19929;-81
2021/03/23 07:26:36;;;;;;;;;;;;;;;;;;;;;
2021/03/23 07:51:01;;;;;;;;;;;;;;;;;;;;;
2021/03/23 08:01:33;;;;;;;;;;;;;;;12.30;39.88;101749.63;4658244;30;20096;-80
2021/03/23 08:05:00;;;;;;;;;;;;;;;12.36;39.98;101765.44;4594889;31;19941;-80
2021/03/23 09:01:47;;;;;;;;;;;;;;;12.98;39.79;101781.94;4620679;30;19947;-81
2021/03/23 09:08:43;;;;;;;;;;;;;;;13.11;39.65;101788.72;4607630;30;19943;-81
2021/03/23 09:11:19;;;;;;;;;;;;;;;13.14;39.52;101788.66;4647665;30;20051;-80
2021/03/23 09:14:02;;;;;;;;;;;;;;;13.05;39.83;101799.47;4695698;30;19942;-80
2021/03/23 09:16:50;;;;;;;;;;;;;;;13.15;39.74;101795.72;4709964;30;19948;-81
2021/03/23 09:19:32;;;;;;;;;;;;;;;13.11;39.90;101794.91;4721626;30;19935;-79
2021/03/23 09:22:14;;;;;;;;;;;;;;;13.08;40.01;101800.31;4772236;29;19933;-82
2021/03/23 09:24:48;;;;;;;;;;;;;;;13.20;39.75;101791.19;4775930;29;20043;-80
2021/03/23 09:27:30;;;;;;;;;;;;;;;13.33;39.58;101805.09;4776325;29;19937;-81
2021/03/23 09:30:02;;;;;;;;;;;;;;;13.42;39.48;101810.22;4790570;29;19938;-81
2021/03/23 09:33:07;;;;;;;;;;;;;;;13.51;39.38;101802.94;4790208;29;19933;-80
2021/03/23 09:36:06;;;;;;;;;;;;;;;13.56;39.28;101809.91;4777646;29;19934;-81
2021/03/23 09:38:54;;;;;;;;;;;;;;;13.56;39.42;101809.03;4762166;29;19933;-81
2021/03/23 09:41:36;;;;;;;;;;;;;;;13.58;39.14;101805.44;4789230;29;19933;-79
2021/03/23 09:44:39;;;;;;;;;;;;;;;13.69;39.26;101813.16;4761465;29;20466;-81
2021/03/23 09:47:37;;;;;;;;;;;;;;;13.61;39.27;101816.00;4788430;29;19937;-81
2021/03/23 09:50:44;;;;;;;;;;;;;;;13.58;39.38;101812.53;4771385;29;19934;-82
2021/03/23 09:53:17;;;;;;;;;;;;;;;13.55;39.54;101816.16;4726418;30;19971;-81
2021/03/23 09:55:46;;;;;;;;;;;;;;;13.65;39.38;101813.28;4757159;29;19937;-81
2021/03/23 09:58:20;;;;;;;;;;;;;;;13.61;39.27;101818.66;4791165;29;19977;-80
2021/03/23 10:00:48;;;;;;;;;;;;;;;13.60;39.57;101818.69;4794442;29;19938;-80
2021/03/23 10:03:22;;;;;;;;;;;;;;;13.63;39.42;101823.06;4780853;29;19937;-79
2021/03/23 10:06:05;;;;;;;;;;;;;;;13.63;39.64;101831.03;4772140;29;20117;-79
2021/03/23 10:08:59;;;;;;;;;;;;;;;13.74;39.23;101827.22;4794602;29;20441;-80
2021/03/23 10:11:38;;;;;;;;;;;;;;;13.67;39.60;101830.06;4774254;29;20347;-80
2021/03/23 10:14:35;;;;;;;;;;;;;;;13.61;39.34;101823.97;4778954;29;19952;-80
2021/03/23 10:17:10;;;;;;;;;;;;;;;13.68;39.54;101826.50;4774978;29;19929;-81
2021/03/23 10:19:45;;;;;;;;;;;;;;;13.81;39.38;101814.66;4784970;29;19982;-81
2021/03/23 10:22:31;;;;;;;;;;;;;;;13.91;39.02;101812.66;4775710;29;20371;-78
2021/03/23 10:24:59;;;;;;;;;;;;;;;13.84;39.06;101817.25;4766987;29;19959;-80
2021/03/23 10:27:39;;;;;;;;;;;;;;;13.81;39.21;101816.44;4790565;29;19937;-81
2021/03/23 10:30:20;;;;;;;;;;;;;;;13.93;38.98;101821.44;4789565;29;19938;-80
2021/03/23 10:32:56;;;;;;;;;;;;;;;13.99;39.10;101823.13;4771314;29;19933;-80
2021/03/23 10:35:31;;;;;;;;;;;;;;;14.00;39.12;101820.41;4787540;29;19993;-81
2021/03/23 10:38:14;;;;;;;;;;;;;;;14.01;39.09;101810.63;4788610;29;19954;-81
2021/03/23 10:41:03;;;;;;;;;;;;;;;14.07;38.78;101807.81;4780971;29;19933;-78
2021/03/23 10:43:45;;;;;;;;;;;;;;;14.12;38.61;101808.59;4760229;29;19940;-81
2021/03/23 10:46:51;;;;;;;;;;;;;;;14.21;38.85;101805.69;4777140;29;19934;-82
2021/03/23 10:49:36;;;;;;;;;;;;;;;14.27;38.38;101805.53;4788182;29;19976;-81
2021/03/23 10:52:31;;;;;;;;;;;;;;;14.30;38.66;101801.91;4786843;29;19961;-80
2021/03/23 10:55:14;;;;;;;;;;;;;;;14.44;38.00;101801.53;4770268;29;19933;-81
2021/03/23 10:57:46;;;;;;;;;;;;;;;14.59;38.08;101802.91;4774153;29;19980;-77
2021/03/23 11:00:30;;;;;;;;;;;;;;;14.70;37.78;101800.00;4743786;29;19938;-81
2021/03/23 11:03:44;;;;;;;;;;;;;;;14.75;37.72;101798.06;4761747;29;20094;-81
2021/03/23 11:06:27;;;;;;;;;;;;;;;14.89;37.73;101798.56;4780189;29;19940;-78
2021/03/23 11:08:56;;;;;;;;;;;;;;;14.91;37.56;101796.72;4765774;29;19930;-77
2021/03/23 11:11:23;;;;;;;;;;;;;;;15.05;37.12;101795.41;4783380;29;19955;-78
2021/03/23 11:13:50;;;;;;;;;;;;;;;15.18;36.91;101801.28;4761452;29;19938;-79
2021/03/23 11:16:19;;;;;;;;;;;;;;;15.22;36.78;101795.81;4763991;29;19940;-80
2021/03/23 11:18:47;;;;;;;;;;;;;;;15.30;36.87;101806.25;4768252;29;19957;-79
2021/03/23 11:21:17;;;;;;;;;;;;;;;15.39;36.93;101799.75;4752480;29;20517;-79
2021/03/23 11:23:47;;;;;;;;;;;;;;;15.47;36.48;101799.50;4779748;29;19939;-80
2021/03/23 11:26:17;;;;;;;;;;;;;;;15.44;37.21;101813.81;4750641;29;19954;-80
2021/03/23 11:28:46;;;;;;;;;;;;;;;15.45;36.85;101802.22;4761559;29;19933;-79
2021/03/23 11:31:15;;;;;;;;;;;;;;;15.56;36.75;101805.44;4785025;29;20008;-80
2021/03/23 11:33:47;;;;;;;;;;;;;;;15.69;36.25;101805.03;4777925;29;19962;-80
2021/03/23 11:36:15;;;;;;;;;;;;;;;15.75;36.45;101802.19;4756260;29;19943;-79
2021/03/23 11:39:00;;;;;;;;;;;;;;;15.82;36.62;101808.22;4767266;29;19938;-80
2021/03/23 11:41:36;;;;;;;;;;;;;;;15.75;36.46;101808.38;4747835;29;20446;-80
2021/03/23 11:44:17;;;;;;;;;;;;;;;15.59;36.76;101808.00;4767443;29;20704;-77
2021/03/23 11:46:48;;;;;;;;;;;;;;;15.67;36.78;101820.25;4769310;29;20106;-78
2021/03/23 11:49:18;;;;;;;;;;;;;;;15.72;36.70;101821.81;4779049;29;20153;-81
2021/03/23 11:51:46;;;;;;;;;;;;;;;15.89;36.44;101813.31;4765308;29;20505;-79
2021/03/23 11:54:15;;;;;;;;;;;;;;;15.85;36.51;101822.34;4767790;29;19937;-79
2021/03/23 11:56:43;;;;;;;;;;;;;;;15.86;36.60;101816.06;4766496;29;20836;-79
2021/03/23 11:59:11;;;;;;;;;;;;;;;15.90;36.19;101811.50;4765326;29;19984;-78
2021/03/23 12:01:38;;;;;;;;;;;;;;;16.00;36.34;101812.09;4758236;29;19940;-79
2021/03/23 12:04:07;;;;;;;;;;;;;;;15.95;36.47;101814.03;4776978;29;19942;-79
2021/03/23 12:06:36;;;;;;;;;;;;;;;15.92;36.97;101820.34;4781282;29;19990;-80
2021/03/23 12:09:06;;;;;;;;;;;;;;;16.00;36.47;101817.44;4765694;29;20074;-79
2021/03/23 12:11:40;;;;;;;;;;;;;;;16.05;36.20;101808.34;4769291;29;19930;-79
2021/03/23 12:14:14;;;;;;;;;;;;;;;16.05;36.59;101819.00;4781487;29;19973;-79
2021/03/23 12:16:47;;;;;;;;;;;;;;;16.02;36.52;101812.88;4766345;29;20634;-78
2021/03/23 12:19:22;;;;;;;;;;;;;;;16.09;36.51;101807.31;4779167;29;20403;-78
2021/03/23 12:21:50;;;;;;;;;;;;;;;16.03;36.35;101803.97;4767277;29;19945;-79
2021/03/23 12:24:17;;;;;;;;;;;;;;;16.17;36.60;101803.50;4773424;29;19938;-79
2021/03/23 12:26:46;;;;;;;;;;;;;;;16.09;36.49;101803.78;4763165;29;19944;-78
2021/03/23 12:29:13;;;;;;;;;;;;;;;16.17;36.52;101806.19;4749229;29;19961;-79
2021/03/23 12:31:41;;;;;;;;;;;;;;;16.13;36.04;101805.41;4780238;29;19938;-80
2021/03/23 12:34:09;;;;;;;;;;;;;;;16.20;36.10;101804.25;4759807;29;20010;-80
2021/03/23 12:36:36;;;;;;;;;;;;;;;16.26;35.83;101811.22;4766860;29;19987;-78
2021/03/23 12:39:03;;;;;;;;;;;;;;;16.23;36.19;101806.84;4762544;29;19937;-79
2021/03/23 12:41:33;;;;;;;;;;;;;;;16.37;35.95;101803.69;4779534;29;19937;-79
2021/03/23 12:44:01;;;;;;;;;;;;;;;16.37;35.75;101794.81;4784137;29;19950;-79
2021/03/23 12:46:28;;;;;;;;;;;;;;;16.34;36.03;101803.78;4759234;29;19941;-78
2021/03/23 12:48:56;;;;;;;;;;;;;;;16.40;36.00;101803.59;4766395;29;19937;-78
2021/03/23 12:51:26;;;;;;;;;;;;;;;16.37;36.20;101800.16;4752975;30;19945;-79
2021/03/23 12:53:54;;;;;;;;;;;;;;;16.35;36.07;101796.66;4746534;29;21058;-78
2021/03/23 12:56:22;;;;;;;;;;;;;;;16.23;36.18;101793.50;4766135;29;19971;-78
2021/03/23 12:58:49;;;;;;;;;;;;;;;16.17;36.74;101800.84;4754091;29;19937;-78
2021/03/23 13:01:19;;;;;;;;;;;;;;;16.13;36.93;101794.72;4756360;29;20397;-79
2021/03/23 13:03:47;;;;;;;;;;;;;;;16.12;37.33;101797.47;4755650;29;21347;-78
2021/03/23 13:06:15;;;;;;;;;;;;;;;16.14;37.17;101795.59;4749944;29;19940;-79
2021/03/23 13:08:44;;;;;;;;;;;;;;;16.07;37.02;101793.16;4773190;29;19972;-78
2021/03/23 13:11:18;;;;;;;;;;;;;;;16.06;37.50;101790.50;4752342;29;19995;-79
2021/03/23 13:13:47;;;;;;;;;;;;;;;16.02;37.36;101792.44;4763527;29;19933;-78
2021/03/23 13:16:15;;;;;;;;;;;;;;;16.00;36.93;101782.72;4766743;29;19929;-79
2021/03/23 13:18:43;;;;;;;;;;;;;;;16.04;37.04;101789.72;4763771;29;19937;-79
2021/03/23 13:21:16;;;;;;;;;;;;;;;16.05;37.04;101791.47;4761318;29;19980;-78
2021/03/23 13:23:49;;;;;;;;;;;;;;;16.09;36.74;101782.41;4777321;29;21206;-77
2021/03/23 13:26:19;;;;;;;;;;;;;;;15.95;37.25;101790.88;4770576;29;19938;-78
2021/03/23 13:28:50;;;;;;;;;;;;;;;15.92;37.43;101781.19;4777281;29;19980;-79
2021/03/23 13:31:19;;;;;;;;;;;;;;;15.89;37.77;101783.97;4764951;29;19938;-78
2021/03/23 13:33:50;;;;;;;;;;;;;;;15.83;37.45;101785.97;4797701;29;20538;-79
2021/03/23 13:36:26;;;;;;;;;;;;;;;15.74;37.60;101787.09;4777636;29;20055;-78
2021/03/23 13:39:00;;;;;;;;;;;;;;;15.59;37.79;101786.66;4750527;29;20024;-78
2021/03/23 13:41:27;;;;;;;;;;;;;;;15.58;38.16;101784.06;4766262;29;20792;-78
2021/03/23 13:44:00;;;;;;;;;;;;;;;15.55;37.71;101786.81;4765409;29;19933;-78
2021/03/23 13:46:35;;;;;;;;;;;;;;;15.47;38.44;101778.19;4756902;29;20103;-78
2021/03/23 13:49:08;;;;;;;;;;;;;;;15.45;37.82;101780.91;4769264;29;19937;-79
2021/03/23 13:51:39;;;;;;;;;;;;;;;15.46;38.12;101779.09;4775548;29;19937;-78
2021/03/23 13:54:08;;;;;;;;;;;;;;;15.41;38.67;101779.25;4776701;29;22543;-78
2021/03/23 13:56:37;;;;;;;;;;;;;;;15.35;38.55;101780.31;4773619;29;19938;-78
2021/03/23 13:59:06;;;;;;;;;;;;;;;15.37;38.35;101774.94;4751075;29;20398;-79
2021/03/23 14:01:36;;;;;;;;;;;;;;;15.44;38.16;101779.16;4759346;29;19930;-78
2021/03/23 14:04:04;;;;;;;;;;;;;;;15.33;38.72;101782.16;4768815;29;20025;-78
2021/03/23 14:06:35;;;;;;;;;;;;;;;15.36;38.17;101779.38;4774244;29;19937;-78
2021/03/23 14:09:08;;;;;;;;;;;;;;;15.38;38.30;101782.88;4763798;29;19938;-78
2021/03/23 14:11:36;;;;;;;;;;;;;;;15.46;37.88;101782.66;4764757;29;19937;-78
2021/03/23 14:14:10;;;;;;;;;;;;;;;15.43;38.37;101774.72;4761237;29;19945;-78
2021/03/23 14:16:38;;;;;;;;;;;;;;;15.44;38.08;101771.16;4747531;29;19934;-79
2021/03/23 14:19:11;;;;;;;;;;;;;;;15.39;38.20;101773.09;4754840;29;21086;-78
2021/03/23 14:21:42;;;;;;;;;;;;;;;15.27;38.67;101775.22;4774039;29;19934;-78
2021/03/23 14:24:11;;;;;;;;;;;;;;;15.29;38.59;101772.50;4777322;29;19996;-78
2021/03/23 14:26:38;;;;;;;;;;;;;;;15.28;38.49;101774.28;4762341;29;19965;-78
2021/03/23 14:29:09;;;;;;;;;;;;;;;15.30;38.75;101770.69;4770857;29;20076;-78
2021/03/23 14:31:37;;;;;;;;;;;;;;;15.25;38.83;101765.53;4743549;29;19933;-78
2021/03/23 14:34:05;;;;;;;;;;;;;;;15.26;38.59;101761.94;4772463;29;19973;-78
2021/03/23 14:36:33;;;;;;;;;;;;;;;15.23;38.81;101759.34;4753960;29;20477;-78
2021/03/23 14:39:12;;;;;;;;;;;;;;;15.22;38.91;101765.59;4750972;29;20049;-78
2021/03/23 14:41:41;;;;;;;;;;;;;;;15.14;38.94;101757.88;4785189;29;19934;-79
2021/03/23 14:44:12;;;;;;;;;;;;;;;15.13;38.89;101761.44;4769977;29;21105;-78
2021/03/23 14:46:40;;;;;;;;;;;;;;;15.07;39.13;101761.63;4782534;29;19933;-79
2021/03/23 14:49:09;;;;;;;;;;;;;;;15.06;38.94;101765.19;4771081;29;20451;-77